sensor_id;sensor_type;location;lat;lon;timestamp;temperature;humidity
7518;DHT22;3800;48.922;9.444;2023-08-31T00:02:14;13.80;99.90
7518;DHT22;3800;48.922;9.444;2023-08-31T00:04:44;13.70;99.90
7518;DHT22;3800;48.922;9.444;2023-08-31T00:07:12;13.70;99.90
7518;DHT22;3800;48.922;9.444;2023-08-31T00:09:41;13.70;99.90
7518;DHT22;3800;48.922;9.444;2023-08-31T00:12:09;13.70;99.90
7518;DHT22;3800;48.922;9.444;2023-08-31T00:14:38;13.70;99.90
7518;DHT22;3800;48.922;9.444;2023-08-31T00:17:06;13.70;99.90
7518;DHT22;3800;48.922;9.444;2023-08-31T00:19:35;13.70;99.90
7518;DHT22;3800;48.922;9.444;2023-08-31T00:22:04;13.70;99.90
7518;DHT22;3800;48.922;9.444;2023-08-31T00:24:33;13.70;99.90
7518;DHT22;3800;48.922;9.444;2023-08-31T00:27:02;13.70;99.90
7518;DHT22;3800;48.922;9.444;2023-08-31T00:29:31;13.60;99.90
7518;DHT22;3800;48.922;9.444;2023-08-31T00:32:00;13.70;99.90
7518;DHT22;3800;48.922;9.444;2023-08-31T00:34:30;13.70;99.90
7518;DHT22;3800;48.922;9.444;2023-08-31T00:36:58;13.60;99.90
7518;DHT22;3800;48.922;9.444;2023-08-31T00:39:26;13.60;99.90
7518;DHT22;3800;48.922;9.444;2023-08-31T00:41:54;13.60;99.90
7518;DHT22;3800;48.922;9.444;2023-08-31T00:44:24;13.50;99.90
7518;DHT22;3800;48.922;9.444;2023-08-31T00:46:53;13.50;99.90
7518;DHT22;3800;48.922;9.444;2023-08-31T00:49:22;13.40;99.90
7518;DHT22;3800;48.922;9.444;2023-08-31T00:51:51;13.40;99.90
7518;DHT22;3800;48.922;9.444;2023-08-31T00:54:19;13.30;99.90
7518;DHT22;3800;48.922;9.444;2023-08-31T00:56:55;13.30;99.90
7518;DHT22;3800;48.922;9.444;2023-08-31T00:59:23;13.20;99.90
7518;DHT22;3800;48.922;9.444;2023-08-31T01:02:07;13.20;99.90
7518;DHT22;3800;48.922;9.444;2023-08-31T01:07:41;13.10;99.90
7518;DHT22;3800;48.922;9.444;2023-08-31T01:10:32;13.00;99.90
7518;DHT22;3800;48.922;9.444;2023-08-31T01:13:07;13.00;99.90
7518;DHT22;3800;48.922;9.444;2023-08-31T01:15:32;13.00;99.90
7518;DHT22;3800;48.922;9.444;2023-08-31T01:18:00;13.00;99.90
7518;DHT22;3800;48.922;9.444;2023-08-31T01:20:34;12.90;99.90
7518;DHT22;3800;48.922;9.444;2023-08-31T01:23:02;12.90;99.90
7518;DHT22;3800;48.922;9.444;2023-08-31T01:25:31;12.90;99.90
7518;DHT22;3800;48.922;9.444;2023-08-31T01:27:59;12.90;99.90
7518;DHT22;3800;48.922;9.444;2023-08-31T01:30:30;12.90;99.90
7518;DHT22;3800;48.922;9.444;2023-08-31T01:32:59;12.90;99.90
7518;DHT22;3800;48.922;9.444;2023-08-31T01:35:27;12.80;99.90
7518;DHT22;3800;48.922;9.444;2023-08-31T01:37:57;12.80;99.90
7518;DHT22;3800;48.922;9.444;2023-08-31T01:40:49;12.80;99.90
7518;DHT22;3800;48.922;9.444;2023-08-31T01:43:18;12.80;99.90
7518;DHT22;3800;48.922;9.444;2023-08-31T01:45:47;12.70;99.90
7518;DHT22;3800;48.922;9.444;2023-08-31T01:48:15;12.70;99.90
7518;DHT22;3800;48.922;9.444;2023-08-31T01:50:43;12.70;99.90
7518;DHT22;3800;48.922;9.444;2023-08-31T01:53:12;12.60;99.90
7518;DHT22;3800;48.922;9.444;2023-08-31T01:55:40;12.60;99.90
7518;DHT22;3800;48.922;9.444;2023-08-31T01:58:08;12.60;99.90
7518;DHT22;3800;48.922;9.444;2023-08-31T02:00:36;12.60;99.90
7518;DHT22;3800;48.922;9.444;2023-08-31T02:03:05;12.60;99.90
7518;DHT22;3800;48.922;9.444;2023-08-31T02:05:34;12.50;99.90
7518;DHT22;3800;48.922;9.444;2023-08-31T02:08:02;12.50;99.90
7518;DHT22;3800;48.922;9.444;2023-08-31T02:10:30;12.50;99.90
7518;DHT22;3800;48.922;9.444;2023-08-31T02:12:59;12.50;99.90
7518;DHT22;3800;48.922;9.444;2023-08-31T02:15:28;12.50;99.90
7518;DHT22;3800;48.922;9.444;2023-08-31T02:17:56;12.50;99.90
7518;DHT22;3800;48.922;9.444;2023-08-31T02:20:25;12.40;99.90
7518;DHT22;3800;48.922;9.444;2023-08-31T02:22:53;12.50;99.90
7518;DHT22;3800;48.922;9.444;2023-08-31T02:25:22;12.50;99.90
7518;DHT22;3800;48.922;9.444;2023-08-31T02:27:50;12.50;99.90
7518;DHT22;3800;48.922;9.444;2023-08-31T02:30:19;12.50;99.90
7518;DHT22;3800;48.922;9.444;2023-08-31T02:32:47;12.60;99.90
7518;DHT22;3800;48.922;9.444;2023-08-31T02:35:16;12.60;99.90
7518;DHT22;3800;48.922;9.444;2023-08-31T02:37:44;12.60;99.90
7518;DHT22;3800;48.922;9.444;2023-08-31T02:40:13;12.60;99.90
7518;DHT22;3800;48.922;9.444;2023-08-31T02:42:41;12.60;99.90
7518;DHT22;3800;48.922;9.444;2023-08-31T02:45:09;12.60;99.90
7518;DHT22;3800;48.922;9.444;2023-08-31T02:47:38;12.70;99.90
7518;DHT22;3800;48.922;9.444;2023-08-31T02:50:07;12.70;99.90
7518;DHT22;3800;48.922;9.444;2023-08-31T02:52:36;12.70;99.90
7518;DHT22;3800;48.922;9.444;2023-08-31T02:55:04;12.70;99.90
7518;DHT22;3800;48.922;9.444;2023-08-31T02:57:34;12.70;99.90
7518;DHT22;3800;48.922;9.444;2023-08-31T03:00:02;12.70;99.90
7518;DHT22;3800;48.922;9.444;2023-08-31T03:02:31;12.70;99.90
7518;DHT22;3800;48.922;9.444;2023-08-31T03:04:59;12.70;99.90
7518;DHT22;3800;48.922;9.444;2023-08-31T03:07:28;12.70;99.90
7518;DHT22;3800;48.922;9.444;2023-08-31T03:09:56;12.70;99.90
7518;DHT22;3800;48.922;9.444;2023-08-31T03:12:24;12.60;99.90
7518;DHT22;3800;48.922;9.444;2023-08-31T03:14:53;12.60;99.90
7518;DHT22;3800;48.922;9.444;2023-08-31T03:17:21;12.60;99.90
7518;DHT22;3800;48.922;9.444;2023-08-31T03:19:49;12.60;99.90
7518;DHT22;3800;48.922;9.444;2023-08-31T03:22:17;12.60;99.90
7518;DHT22;3800;48.922;9.444;2023-08-31T03:24:47;12.70;99.90
7518;DHT22;3800;48.922;9.444;2023-08-31T03:27:16;12.70;99.90
7518;DHT22;3800;48.922;9.444;2023-08-31T03:29:44;12.70;99.90
7518;DHT22;3800;48.922;9.444;2023-08-31T03:32:13;12.70;99.90
7518;DHT22;3800;48.922;9.444;2023-08-31T03:34:41;12.70;99.90
7518;DHT22;3800;48.922;9.444;2023-08-31T03:37:09;12.70;99.90
7518;DHT22;3800;48.922;9.444;2023-08-31T03:39:38;12.70;99.90
7518;DHT22;3800;48.922;9.444;2023-08-31T03:42:07;12.70;99.90
7518;DHT22;3800;48.922;9.444;2023-08-31T03:44:35;12.70;99.90
7518;DHT22;3800;48.922;9.444;2023-08-31T03:47:04;12.70;99.90
7518;DHT22;3800;48.922;9.444;2023-08-31T03:49:33;12.70;99.90
7518;DHT22;3800;48.922;9.444;2023-08-31T03:52:02;12.70;99.90
7518;DHT22;3800;48.922;9.444;2023-08-31T03:54:30;12.70;99.90
7518;DHT22;3800;48.922;9.444;2023-08-31T03:56:58;12.70;99.90
7518;DHT22;3800;48.922;9.444;2023-08-31T03:59:27;12.70;99.90
7518;DHT22;3800;48.922;9.444;2023-08-31T04:01:56;12.70;99.90
7518;DHT22;3800;48.922;9.444;2023-08-31T04:04:24;12.70;99.90
7518;DHT22;3800;48.922;9.444;2023-08-31T04:06:52;12.70;99.90
7518;DHT22;3800;48.922;9.444;2023-08-31T04:09:20;12.70;99.90
7518;DHT22;3800;48.922;9.444;2023-08-31T04:11:49;12.70;99.90
7518;DHT22;3800;48.922;9.444;2023-08-31T04:14:17;12.70;99.90
7518;DHT22;3800;48.922;9.444;2023-08-31T04:16:45;12.70;99.90
7518;DHT22;3800;48.922;9.444;2023-08-31T04:19:13;12.70;99.90
7518;DHT22;3800;48.922;9.444;2023-08-31T04:21:43;12.70;99.90
7518;DHT22;3800;48.922;9.444;2023-08-31T04:24:11;12.60;99.90
7518;DHT22;3800;48.922;9.444;2023-08-31T04:26:39;12.60;99.90
7518;DHT22;3800;48.922;9.444;2023-08-31T04:29:07;12.60;99.90
7518;DHT22;3800;48.922;9.444;2023-08-31T04:31:36;12.60;99.90
7518;DHT22;3800;48.922;9.444;2023-08-31T04:34:04;12.60;99.90
7518;DHT22;3800;48.922;9.444;2023-08-31T04:36:32;12.60;99.90
7518;DHT22;3800;48.922;9.444;2023-08-31T04:39:00;12.60;99.90
7518;DHT22;3800;48.922;9.444;2023-08-31T04:41:29;12.60;99.90
7518;DHT22;3800;48.922;9.444;2023-08-31T04:43:58;12.60;99.90
7518;DHT22;3800;48.922;9.444;2023-08-31T04:46:27;12.60;99.90
7518;DHT22;3800;48.922;9.444;2023-08-31T04:48:55;12.60;99.90
7518;DHT22;3800;48.922;9.444;2023-08-31T04:51:29;12.60;99.90
7518;DHT22;3800;48.922;9.444;2023-08-31T04:53:58;12.50;99.90
7518;DHT22;3800;48.922;9.444;2023-08-31T04:56:31;12.50;99.90
7518;DHT22;3800;48.922;9.444;2023-08-31T04:59:01;12.50;99.90
7518;DHT22;3800;48.922;9.444;2023-08-31T05:01:29;12.60;99.90
7518;DHT22;3800;48.922;9.444;2023-08-31T05:03:58;12.50;99.90
7518;DHT22;3800;48.922;9.444;2023-08-31T05:06:26;12.60;99.90
7518;DHT22;3800;48.922;9.444;2023-08-31T05:08:55;12.50;99.90
7518;DHT22;3800;48.922;9.444;2023-08-31T05:11:24;12.60;99.90
7518;DHT22;3800;48.922;9.444;2023-08-31T05:13:52;12.60;99.90
7518;DHT22;3800;48.922;9.444;2023-08-31T05:16:20;12.60;99.90
7518;DHT22;3800;48.922;9.444;2023-08-31T05:18:49;12.60;99.90
7518;DHT22;3800;48.922;9.444;2023-08-31T05:21:17;12.60;99.90
7518;DHT22;3800;48.922;9.444;2023-08-31T05:23:45;12.60;99.90
7518;DHT22;3800;48.922;9.444;2023-08-31T05:26:13;12.60;99.90
7518;DHT22;3800;48.922;9.444;2023-08-31T05:28:42;12.60;99.90
7518;DHT22;3800;48.922;9.444;2023-08-31T05:31:10;12.60;99.90
7518;DHT22;3800;48.922;9.444;2023-08-31T05:33:38;12.60;99.90
7518;DHT22;3800;48.922;9.444;2023-08-31T05:36:06;12.60;99.90
7518;DHT22;3800;48.922;9.444;2023-08-31T05:38:35;12.60;99.90
7518;DHT22;3800;48.922;9.444;2023-08-31T05:41:06;12.60;99.90
7518;DHT22;3800;48.922;9.444;2023-08-31T05:43:35;12.70;99.90
7518;DHT22;3800;48.922;9.444;2023-08-31T05:46:03;12.70;99.90
7518;DHT22;3800;48.922;9.444;2023-08-31T05:48:32;12.80;99.90
7518;DHT22;3800;48.922;9.444;2023-08-31T05:51:00;12.80;99.90
7518;DHT22;3800;48.922;9.444;2023-08-31T05:53:28;12.80;99.90
7518;DHT22;3800;48.922;9.444;2023-08-31T05:55:58;12.90;99.90
7518;DHT22;3800;48.922;9.444;2023-08-31T05:58:26;12.90;99.90
7518;DHT22;3800;48.922;9.444;2023-08-31T06:00:54;13.00;99.90
7518;DHT22;3800;48.922;9.444;2023-08-31T06:03:22;13.00;99.90
7518;DHT22;3800;48.922;9.444;2023-08-31T06:05:51;13.00;99.90
7518;DHT22;3800;48.922;9.444;2023-08-31T06:08:19;13.00;99.90
7518;DHT22;3800;48.922;9.444;2023-08-31T06:10:48;13.00;99.90
7518;DHT22;3800;48.922;9.444;2023-08-31T06:13:16;13.10;99.90
7518;DHT22;3800;48.922;9.444;2023-08-31T06:15:44;13.10;99.90
7518;DHT22;3800;48.922;9.444;2023-08-31T06:18:13;13.20;99.90
7518;DHT22;3800;48.922;9.444;2023-08-31T06:20:41;13.20;99.90
7518;DHT22;3800;48.922;9.444;2023-08-31T06:23:09;13.20;99.90
7518;DHT22;3800;48.922;9.444;2023-08-31T06:25:37;13.20;99.90
7518;DHT22;3800;48.922;9.444;2023-08-31T06:28:07;13.20;99.90
7518;DHT22;3800;48.922;9.444;2023-08-31T06:30:38;13.20;99.90
7518;DHT22;3800;48.922;9.444;2023-08-31T06:33:06;13.20;99.90
7518;DHT22;3800;48.922;9.444;2023-08-31T06:35:34;13.30;99.90
7518;DHT22;3800;48.922;9.444;2023-08-31T06:38:03;13.30;99.90
7518;DHT22;3800;48.922;9.444;2023-08-31T06:40:31;13.30;99.90
7518;DHT22;3800;48.922;9.444;2023-08-31T06:42:59;13.30;99.90
7518;DHT22;3800;48.922;9.444;2023-08-31T06:45:28;13.40;99.90
7518;DHT22;3800;48.922;9.444;2023-08-31T06:47:56;13.40;99.90
7518;DHT22;3800;48.922;9.444;2023-08-31T06:50:25;13.50;99.90
7518;DHT22;3800;48.922;9.444;2023-08-31T06:52:53;13.50;99.90
7518;DHT22;3800;48.922;9.444;2023-08-31T06:55:21;13.60;99.90
7518;DHT22;3800;48.922;9.444;2023-08-31T06:57:50;13.60;99.90
7518;DHT22;3800;48.922;9.444;2023-08-31T07:00:18;13.70;99.90
7518;DHT22;3800;48.922;9.444;2023-08-31T07:02:47;13.70;99.90
7518;DHT22;3800;48.922;9.444;2023-08-31T07:05:17;13.80;99.90
7518;DHT22;3800;48.922;9.444;2023-08-31T07:07:45;13.80;99.90
7518;DHT22;3800;48.922;9.444;2023-08-31T07:10:14;14.00;99.90
7518;DHT22;3800;48.922;9.444;2023-08-31T07:12:42;14.10;99.90
7518;DHT22;3800;48.922;9.444;2023-08-31T07:15:10;14.30;99.90
7518;DHT22;3800;48.922;9.444;2023-08-31T07:17:39;14.40;99.90
7518;DHT22;3800;48.922;9.444;2023-08-31T07:20:08;14.50;99.90
7518;DHT22;3800;48.922;9.444;2023-08-31T07:22:37;14.60;99.90
7518;DHT22;3800;48.922;9.444;2023-08-31T07:25:06;14.60;99.90
7518;DHT22;3800;48.922;9.444;2023-08-31T07:27:36;14.70;99.90
7518;DHT22;3800;48.922;9.444;2023-08-31T07:30:05;14.60;99.90
7518;DHT22;3800;48.922;9.444;2023-08-31T07:32:34;14.60;99.90
7518;DHT22;3800;48.922;9.444;2023-08-31T07:35:02;14.70;99.90
7518;DHT22;3800;48.922;9.444;2023-08-31T07:37:31;14.70;99.90
7518;DHT22;3800;48.922;9.444;2023-08-31T07:39:59;14.80;99.90
7518;DHT22;3800;48.922;9.444;2023-08-31T07:42:27;14.70;99.90
7518;DHT22;3800;48.922;9.444;2023-08-31T07:44:55;14.80;99.90
7518;DHT22;3800;48.922;9.444;2023-08-31T07:47:24;14.80;99.90
7518;DHT22;3800;48.922;9.444;2023-08-31T07:49:52;14.80;99.90
7518;DHT22;3800;48.922;9.444;2023-08-31T07:52:20;14.70;99.90
7518;DHT22;3800;48.922;9.444;2023-08-31T07:54:48;14.80;99.90
7518;DHT22;3800;48.922;9.444;2023-08-31T07:57:17;14.70;99.90
7518;DHT22;3800;48.922;9.444;2023-08-31T07:59:47;14.80;99.90
7518;DHT22;3800;48.922;9.444;2023-08-31T08:02:15;14.80;99.90
7518;DHT22;3800;48.922;9.444;2023-08-31T08:04:45;15.00;99.90
7518;DHT22;3800;48.922;9.444;2023-08-31T08:07:12;15.00;99.90
7518;DHT22;3800;48.922;9.444;2023-08-31T08:09:41;15.00;99.90
7518;DHT22;3800;48.922;9.444;2023-08-31T08:12:10;15.10;99.90
7518;DHT22;3800;48.922;9.444;2023-08-31T08:14:38;15.10;99.90
7518;DHT22;3800;48.922;9.444;2023-08-31T08:17:07;15.20;99.90
7518;DHT22;3800;48.922;9.444;2023-08-31T08:19:35;15.30;99.90
7518;DHT22;3800;48.922;9.444;2023-08-31T08:22:04;15.40;99.90
7518;DHT22;3800;48.922;9.444;2023-08-31T08:24:32;15.50;99.90
7518;DHT22;3800;48.922;9.444;2023-08-31T08:27:00;15.60;99.90
7518;DHT22;3800;48.922;9.444;2023-08-31T08:29:28;15.70;99.90
7518;DHT22;3800;48.922;9.444;2023-08-31T08:31:57;15.70;99.90
7518;DHT22;3800;48.922;9.444;2023-08-31T08:34:25;15.70;99.90
7518;DHT22;3800;48.922;9.444;2023-08-31T08:36:54;15.70;99.90
7518;DHT22;3800;48.922;9.444;2023-08-31T08:39:22;15.80;99.90
7518;DHT22;3800;48.922;9.444;2023-08-31T08:41:50;15.90;99.90
7518;DHT22;3800;48.922;9.444;2023-08-31T08:44:18;15.90;99.90
7518;DHT22;3800;48.922;9.444;2023-08-31T08:46:47;15.90;99.90
7518;DHT22;3800;48.922;9.444;2023-08-31T08:49:15;15.80;99.90
7518;DHT22;3800;48.922;9.444;2023-08-31T08:51:44;15.70;99.90
7518;DHT22;3800;48.922;9.444;2023-08-31T08:54:12;15.70;99.90
7518;DHT22;3800;48.922;9.444;2023-08-31T08:56:40;15.60;99.90
7518;DHT22;3800;48.922;9.444;2023-08-31T08:59:08;15.60;99.90
7518;DHT22;3800;48.922;9.444;2023-08-31T09:01:37;15.60;99.90
7518;DHT22;3800;48.922;9.444;2023-08-31T09:04:05;15.70;99.90
7518;DHT22;3800;48.922;9.444;2023-08-31T09:06:33;15.70;99.90
7518;DHT22;3800;48.922;9.444;2023-08-31T09:09:02;15.80;99.90
7518;DHT22;3800;48.922;9.444;2023-08-31T09:11:30;15.80;99.90
7518;DHT22;3800;48.922;9.444;2023-08-31T09:13:58;15.80;99.90
7518;DHT22;3800;48.922;9.444;2023-08-31T09:16:27;15.80;99.90
7518;DHT22;3800;48.922;9.444;2023-08-31T09:18:55;15.90;99.90
7518;DHT22;3800;48.922;9.444;2023-08-31T09:21:36;16.00;99.90
7518;DHT22;3800;48.922;9.444;2023-08-31T09:24:06;16.20;99.90
7518;DHT22;3800;48.922;9.444;2023-08-31T09:26:37;16.10;99.90
7518;DHT22;3800;48.922;9.444;2023-08-31T09:29:05;16.10;99.90
7518;DHT22;3800;48.922;9.444;2023-08-31T09:31:33;16.00;99.90
7518;DHT22;3800;48.922;9.444;2023-08-31T09:34:01;15.90;99.90
7518;DHT22;3800;48.922;9.444;2023-08-31T09:36:30;16.10;99.90
7518;DHT22;3800;48.922;9.444;2023-08-31T09:38:58;16.00;99.90
7518;DHT22;3800;48.922;9.444;2023-08-31T09:41:28;15.90;99.90
7518;DHT22;3800;48.922;9.444;2023-08-31T09:43:56;15.80;99.90
7518;DHT22;3800;48.922;9.444;2023-08-31T09:46:24;15.70;99.90
7518;DHT22;3800;48.922;9.444;2023-08-31T09:48:52;15.70;99.90
7518;DHT22;3800;48.922;9.444;2023-08-31T09:51:21;15.60;99.90
7518;DHT22;3800;48.922;9.444;2023-08-31T09:53:49;15.70;99.90
7518;DHT22;3800;48.922;9.444;2023-08-31T09:56:18;15.80;99.90
7518;DHT22;3800;48.922;9.444;2023-08-31T09:58:46;15.90;99.90
7518;DHT22;3800;48.922;9.444;2023-08-31T10:01:16;16.10;99.90
7518;DHT22;3800;48.922;9.444;2023-08-31T10:03:44;16.40;99.90
7518;DHT22;3800;48.922;9.444;2023-08-31T10:06:12;16.60;99.90
7518;DHT22;3800;48.922;9.444;2023-08-31T10:08:40;16.90;99.90
7518;DHT22;3800;48.922;9.444;2023-08-31T10:11:09;17.00;99.90
7518;DHT22;3800;48.922;9.444;2023-08-31T10:13:38;17.00;99.90
7518;DHT22;3800;48.922;9.444;2023-08-31T10:16:07;17.00;99.90
7518;DHT22;3800;48.922;9.444;2023-08-31T10:18:36;17.20;99.90
7518;DHT22;3800;48.922;9.444;2023-08-31T10:21:04;17.30;99.90
7518;DHT22;3800;48.922;9.444;2023-08-31T10:23:33;17.30;99.90
7518;DHT22;3800;48.922;9.444;2023-08-31T10:26:02;17.40;99.90
7518;DHT22;3800;48.922;9.444;2023-08-31T10:28:30;17.40;99.90
7518;DHT22;3800;48.922;9.444;2023-08-31T10:31:07;17.30;99.90
7518;DHT22;3800;48.922;9.444;2023-08-31T10:33:37;17.20;99.90
7518;DHT22;3800;48.922;9.444;2023-08-31T10:36:03;17.20;99.90
7518;DHT22;3800;48.922;9.444;2023-08-31T10:38:32;17.10;99.90
7518;DHT22;3800;48.922;9.444;2023-08-31T10:41:16;16.90;99.90
7518;DHT22;3800;48.922;9.444;2023-08-31T10:46:18;17.10;99.90
7518;DHT22;3800;48.922;9.444;2023-08-31T10:48:53;17.30;99.90
7518;DHT22;3800;48.922;9.444;2023-08-31T10:51:24;17.40;99.90
7518;DHT22;3800;48.922;9.444;2023-08-31T10:53:53;17.60;99.90
7518;DHT22;3800;48.922;9.444;2023-08-31T10:56:20;17.60;99.90
7518;DHT22;3800;48.922;9.444;2023-08-31T10:59:00;17.70;99.90
7518;DHT22;3800;48.922;9.444;2023-08-31T11:01:51;17.70;99.90
7518;DHT22;3800;48.922;9.444;2023-08-31T11:04:10;17.80;99.90
7518;DHT22;3800;48.922;9.444;2023-08-31T11:06:39;17.80;99.90
7518;DHT22;3800;48.922;9.444;2023-08-31T11:09:10;17.80;99.90
7518;DHT22;3800;48.922;9.444;2023-08-31T11:11:37;17.80;99.90
7518;DHT22;3800;48.922;9.444;2023-08-31T11:14:05;17.80;99.90
7518;DHT22;3800;48.922;9.444;2023-08-31T11:16:33;17.80;99.90
7518;DHT22;3800;48.922;9.444;2023-08-31T11:19:02;18.00;99.90
7518;DHT22;3800;48.922;9.444;2023-08-31T11:21:30;18.00;99.90
7518;DHT22;3800;48.922;9.444;2023-08-31T11:23:59;18.00;99.90
7518;DHT22;3800;48.922;9.444;2023-08-31T11:26:28;18.00;99.90
7518;DHT22;3800;48.922;9.444;2023-08-31T11:28:56;17.90;99.90
7518;DHT22;3800;48.922;9.444;2023-08-31T11:31:24;17.90;99.90
7518;DHT22;3800;48.922;9.444;2023-08-31T11:33:54;17.90;99.90
7518;DHT22;3800;48.922;9.444;2023-08-31T11:36:22;17.90;99.90
7518;DHT22;3800;48.922;9.444;2023-08-31T11:38:51;18.00;99.90
7518;DHT22;3800;48.922;9.444;2023-08-31T11:41:19;18.10;99.90
7518;DHT22;3800;48.922;9.444;2023-08-31T11:43:47;18.20;99.90
7518;DHT22;3800;48.922;9.444;2023-08-31T11:46:16;18.30;99.90
7518;DHT22;3800;48.922;9.444;2023-08-31T11:48:44;18.30;99.90
7518;DHT22;3800;48.922;9.444;2023-08-31T11:51:13;18.20;99.90
7518;DHT22;3800;48.922;9.444;2023-08-31T11:53:40;18.20;99.90
7518;DHT22;3800;48.922;9.444;2023-08-31T11:56:09;18.10;99.90
7518;DHT22;3800;48.922;9.444;2023-08-31T11:58:41;18.10;99.90
7518;DHT22;3800;48.922;9.444;2023-08-31T12:01:10;18.10;99.90
7518;DHT22;3800;48.922;9.444;2023-08-31T12:03:43;18.00;99.90
7518;DHT22;3800;48.922;9.444;2023-08-31T12:06:15;18.00;99.90
7518;DHT22;3800;48.922;9.444;2023-08-31T12:08:43;18.00;99.90
7518;DHT22;3800;48.922;9.444;2023-08-31T12:11:12;18.10;99.90
7518;DHT22;3800;48.922;9.444;2023-08-31T12:13:40;18.20;99.90
7518;DHT22;3800;48.922;9.444;2023-08-31T12:16:11;18.40;99.90
7518;DHT22;3800;48.922;9.444;2023-08-31T12:18:39;18.50;99.90
7518;DHT22;3800;48.922;9.444;2023-08-31T12:21:08;18.60;99.90
7518;DHT22;3800;48.922;9.444;2023-08-31T12:23:36;18.70;99.90
7518;DHT22;3800;48.922;9.444;2023-08-31T12:26:05;18.80;99.90
7518;DHT22;3800;48.922;9.444;2023-08-31T12:28:32;18.70;99.90
7518;DHT22;3800;48.922;9.444;2023-08-31T12:31:01;18.60;99.90
7518;DHT22;3800;48.922;9.444;2023-08-31T12:33:29;18.60;99.90
7518;DHT22;3800;48.922;9.444;2023-08-31T12:35:57;18.40;99.90
7518;DHT22;3800;48.922;9.444;2023-08-31T12:38:25;18.20;99.90
7518;DHT22;3800;48.922;9.444;2023-08-31T12:40:54;18.10;99.90
7518;DHT22;3800;48.922;9.444;2023-08-31T12:43:22;18.10;99.90
7518;DHT22;3800;48.922;9.444;2023-08-31T12:45:50;18.00;99.90
7518;DHT22;3800;48.922;9.444;2023-08-31T12:48:19;17.90;99.90
7518;DHT22;3800;48.922;9.444;2023-08-31T12:50:47;17.90;99.90
7518;DHT22;3800;48.922;9.444;2023-08-31T12:53:16;18.00;99.90
7518;DHT22;3800;48.922;9.444;2023-08-31T12:55:45;18.10;99.90
7518;DHT22;3800;48.922;9.444;2023-08-31T12:58:13;18.20;99.90
7518;DHT22;3800;48.922;9.444;2023-08-31T13:00:42;18.30;99.90
7518;DHT22;3800;48.922;9.444;2023-08-31T13:03:11;18.50;99.90
7518;DHT22;3800;48.922;9.444;2023-08-31T13:05:39;18.60;99.90
7518;DHT22;3800;48.922;9.444;2023-08-31T13:08:07;18.60;99.90
7518;DHT22;3800;48.922;9.444;2023-08-31T13:10:35;18.60;99.90
7518;DHT22;3800;48.922;9.444;2023-08-31T13:13:04;18.50;99.90
7518;DHT22;3800;48.922;9.444;2023-08-31T13:15:33;18.50;99.90
7518;DHT22;3800;48.922;9.444;2023-08-31T13:18:01;18.40;99.90
7518;DHT22;3800;48.922;9.444;2023-08-31T13:20:30;18.30;99.90
7518;DHT22;3800;48.922;9.444;2023-08-31T13:22:58;18.20;99.90
7518;DHT22;3800;48.922;9.444;2023-08-31T13:25:26;18.20;99.90
7518;DHT22;3800;48.922;9.444;2023-08-31T13:27:55;18.10;99.90
7518;DHT22;3800;48.922;9.444;2023-08-31T13:30:23;18.00;99.90
7518;DHT22;3800;48.922;9.444;2023-08-31T13:32:51;18.10;99.90
7518;DHT22;3800;48.922;9.444;2023-08-31T13:35:19;18.20;99.90
7518;DHT22;3800;48.922;9.444;2023-08-31T13:37:48;18.30;99.90
7518;DHT22;3800;48.922;9.444;2023-08-31T13:40:16;18.50;99.90
7518;DHT22;3800;48.922;9.444;2023-08-31T13:42:57;18.70;99.90
7518;DHT22;3800;48.922;9.444;2023-08-31T13:45:25;18.90;99.90
7518;DHT22;3800;48.922;9.444;2023-08-31T13:47:53;18.90;99.90
7518;DHT22;3800;48.922;9.444;2023-08-31T13:50:21;19.00;99.90
7518;DHT22;3800;48.922;9.444;2023-08-31T13:52:50;19.00;99.90
7518;DHT22;3800;48.922;9.444;2023-08-31T13:55:18;19.10;99.90
7518;DHT22;3800;48.922;9.444;2023-08-31T13:57:46;19.20;99.90
7518;DHT22;3800;48.922;9.444;2023-08-31T14:00:15;19.30;99.90
7518;DHT22;3800;48.922;9.444;2023-08-31T14:02:43;19.40;99.90
7518;DHT22;3800;48.922;9.444;2023-08-31T14:05:11;19.40;99.90
7518;DHT22;3800;48.922;9.444;2023-08-31T14:07:40;19.50;99.90
7518;DHT22;3800;48.922;9.444;2023-08-31T14:10:09;19.40;99.90
7518;DHT22;3800;48.922;9.444;2023-08-31T14:12:37;19.30;99.90
7518;DHT22;3800;48.922;9.444;2023-08-31T14:15:06;19.20;99.90
7518;DHT22;3800;48.922;9.444;2023-08-31T14:17:34;19.10;99.90
7518;DHT22;3800;48.922;9.444;2023-08-31T14:20:03;19.00;99.90
7518;DHT22;3800;48.922;9.444;2023-08-31T14:22:31;19.00;99.90
7518;DHT22;3800;48.922;9.444;2023-08-31T14:25:00;18.90;99.90
7518;DHT22;3800;48.922;9.444;2023-08-31T14:27:28;18.80;99.90
7518;DHT22;3800;48.922;9.444;2023-08-31T14:29:57;18.70;99.90
7518;DHT22;3800;48.922;9.444;2023-08-31T14:32:25;18.60;99.90
7518;DHT22;3800;48.922;9.444;2023-08-31T14:34:54;18.50;99.90
7518;DHT22;3800;48.922;9.444;2023-08-31T14:37:22;18.40;99.90
7518;DHT22;3800;48.922;9.444;2023-08-31T14:39:51;18.30;99.90
7518;DHT22;3800;48.922;9.444;2023-08-31T14:42:19;18.20;99.90
7518;DHT22;3800;48.922;9.444;2023-08-31T14:44:47;18.10;99.90
7518;DHT22;3800;48.922;9.444;2023-08-31T14:47:16;18.00;99.90
7518;DHT22;3800;48.922;9.444;2023-08-31T14:49:45;18.00;99.90
7518;DHT22;3800;48.922;9.444;2023-08-31T14:52:13;17.90;99.90
7518;DHT22;3800;48.922;9.444;2023-08-31T14:54:41;17.80;99.90
7518;DHT22;3800;48.922;9.444;2023-08-31T14:57:09;17.80;99.90
7518;DHT22;3800;48.922;9.444;2023-08-31T14:59:38;17.70;99.90
7518;DHT22;3800;48.922;9.444;2023-08-31T15:02:06;17.70;99.90
7518;DHT22;3800;48.922;9.444;2023-08-31T15:04:34;17.60;99.90
7518;DHT22;3800;48.922;9.444;2023-08-31T15:07:03;17.60;99.90
7518;DHT22;3800;48.922;9.444;2023-08-31T15:09:31;17.60;99.90
7518;DHT22;3800;48.922;9.444;2023-08-31T15:11:59;17.60;99.90
7518;DHT22;3800;48.922;9.444;2023-08-31T15:14:27;17.50;99.90
7518;DHT22;3800;48.922;9.444;2023-08-31T15:16:56;17.50;99.90
7518;DHT22;3800;48.922;9.444;2023-08-31T15:19:24;17.50;99.90
7518;DHT22;3800;48.922;9.444;2023-08-31T15:21:53;17.50;99.90
7518;DHT22;3800;48.922;9.444;2023-08-31T15:24:21;17.50;99.90
7518;DHT22;3800;48.922;9.444;2023-08-31T15:26:50;17.50;99.90
7518;DHT22;3800;48.922;9.444;2023-08-31T15:29:18;17.50;99.90
7518;DHT22;3800;48.922;9.444;2023-08-31T15:31:47;17.50;99.90
7518;DHT22;3800;48.922;9.444;2023-08-31T15:34:15;17.50;99.90
7518;DHT22;3800;48.922;9.444;2023-08-31T15:36:44;17.50;99.90
7518;DHT22;3800;48.922;9.444;2023-08-31T15:39:12;17.60;99.90
7518;DHT22;3800;48.922;9.444;2023-08-31T15:41:41;17.60;99.90
7518;DHT22;3800;48.922;9.444;2023-08-31T15:44:10;17.70;99.90
7518;DHT22;3800;48.922;9.444;2023-08-31T15:46:38;17.70;99.90
7518;DHT22;3800;48.922;9.444;2023-08-31T15:49:06;17.80;99.90
7518;DHT22;3800;48.922;9.444;2023-08-31T15:51:34;17.80;99.90
7518;DHT22;3800;48.922;9.444;2023-08-31T15:54:03;17.80;99.90
7518;DHT22;3800;48.922;9.444;2023-08-31T15:56:32;17.80;99.90
7518;DHT22;3800;48.922;9.444;2023-08-31T15:59:00;17.80;99.90
7518;DHT22;3800;48.922;9.444;2023-08-31T16:01:28;17.80;99.90
7518;DHT22;3800;48.922;9.444;2023-08-31T16:03:57;17.80;99.90
7518;DHT22;3800;48.922;9.444;2023-08-31T16:06:25;17.70;99.90
7518;DHT22;3800;48.922;9.444;2023-08-31T16:08:53;17.70;99.90
7518;DHT22;3800;48.922;9.444;2023-08-31T16:11:22;17.60;99.90
7518;DHT22;3800;48.922;9.444;2023-08-31T16:13:51;17.60;99.90
7518;DHT22;3800;48.922;9.444;2023-08-31T16:16:23;17.50;99.90
7518;DHT22;3800;48.922;9.444;2023-08-31T16:18:51;17.50;99.90